createdAt,value
2023-04-27T00:01:13.248Z,6.89
2023-04-27T00:03:40.313Z,6.83
2023-04-27T00:06:08.377Z,6.86
2023-04-27T00:08:35.477Z,6.87
2023-04-27T00:11:02.213Z,6.85
2023-04-27T00:13:28.995Z,6.84
2023-04-27T00:15:55.738Z,6.84
2023-04-27T00:18:22.462Z,6.86
2023-04-27T00:20:49.764Z,6.81
2023-04-27T00:23:16.475Z,6.71
2023-04-27T00:25:43.149Z,6.73
2023-04-27T00:28:09.779Z,6.64
2023-04-27T00:30:36.457Z,6.73
2023-04-27T00:33:03.208Z,6.76
2023-04-27T00:35:29.998Z,6.63
2023-04-27T00:37:58.280Z,6.63
2023-04-27T00:40:24.963Z,6.66
2023-04-27T00:42:52.725Z,6.68
2023-04-27T00:45:19.415Z,6.65
2023-04-27T00:47:46.320Z,6.62
2023-04-27T00:50:12.993Z,6.54
2023-04-27T00:52:39.956Z,6.51
2023-04-27T00:55:07.265Z,6.53
2023-04-27T00:57:34.575Z,6.54
2023-04-27T01:00:02.247Z,6.47
2023-04-27T01:02:30.208Z,6.46
2023-04-27T01:04:57.261Z,6.46
2023-04-27T01:07:27.287Z,6.39
2023-04-27T01:09:54.112Z,6.35
2023-04-27T01:12:21.111Z,6.33
2023-04-27T01:14:48.809Z,6.32
2023-04-27T01:17:15.442Z,6.27
2023-04-27T01:19:42.371Z,6.23
2023-04-27T01:22:10.407Z,6.23
2023-04-27T01:24:38.077Z,6.22
2023-04-27T01:27:05.601Z,6.18
2023-04-27T01:29:32.376Z,6.10
2023-04-27T01:31:59.201Z,6.14
2023-04-27T01:34:26.063Z,6.10
2023-04-27T01:36:52.751Z,6.10
2023-04-27T01:39:21.184Z,6.07
2023-04-27T01:41:47.843Z,5.96
2023-04-27T01:44:14.546Z,5.93
2023-04-27T01:46:41.512Z,5.89
2023-04-27T01:49:08.486Z,5.70
2023-04-27T01:51:35.167Z,5.55
2023-04-27T01:54:01.776Z,5.57
2023-04-27T01:56:28.422Z,5.53
2023-04-27T01:58:55.841Z,5.45
2023-04-27T02:01:23.003Z,5.40
2023-04-27T02:03:50.048Z,5.35
2023-04-27T02:06:16.812Z,5.35
2023-04-27T02:08:43.492Z,5.28
2023-04-27T02:11:10.448Z,5.30
2023-04-27T02:13:37.121Z,5.24
2023-04-27T02:16:05.346Z,5.23
2023-04-27T02:18:32.781Z,5.12
2023-04-27T02:20:59.469Z,5.07
2023-04-27T02:23:26.182Z,5.05
2023-04-27T02:25:52.870Z,5.04
2023-04-27T02:28:19.520Z,4.92
2023-04-27T02:30:46.544Z,4.89
2023-04-27T02:33:13.195Z,4.94
2023-04-27T02:35:39.848Z,4.89
2023-04-27T02:38:06.719Z,4.81
2023-04-27T02:40:37.171Z,4.78
2023-04-27T02:43:06.246Z,4.74
2023-04-27T02:45:37.256Z,4.69
2023-04-27T02:48:05.970Z,4.64
2023-04-27T02:50:35.140Z,4.59
2023-04-27T02:53:02.867Z,4.60
2023-04-27T02:55:29.897Z,4.56
2023-04-27T02:57:56.595Z,4.58
2023-04-27T03:00:23.264Z,4.56
2023-04-27T03:02:50.098Z,4.54
2023-04-27T03:05:16.996Z,4.50
2023-04-27T03:07:43.787Z,4.45
2023-04-27T03:10:10.729Z,4.41
2023-04-27T03:12:37.350Z,4.34
2023-04-27T03:15:04.375Z,4.28
2023-04-27T03:17:31.332Z,4.24
2023-04-27T03:19:58.111Z,4.21
2023-04-27T03:22:24.995Z,4.19
2023-04-27T03:24:51.683Z,4.19
2023-04-27T03:27:18.340Z,4.15
2023-04-27T03:29:44.983Z,4.10
2023-04-27T03:32:11.682Z,4.06
2023-04-27T03:34:38.450Z,4.03
2023-04-27T03:37:06.395Z,4.02
2023-04-27T03:39:36.844Z,4.03
2023-04-27T03:42:03.870Z,3.99
2023-04-27T03:44:34.186Z,3.98
2023-04-27T03:47:01.860Z,4.00
2023-04-27T03:49:28.979Z,4.04
2023-04-27T03:51:56.420Z,4.06
2023-04-27T03:54:23.079Z,4.09
2023-04-27T03:56:49.925Z,4.05
2023-04-27T03:59:16.876Z,4.11
2023-04-27T04:01:49.076Z,4.20
2023-04-27T04:04:16.102Z,4.29
2023-04-27T04:06:42.979Z,4.37
2023-04-27T04:09:12.705Z,4.38
2023-04-27T04:11:40.171Z,4.48
2023-04-27T04:14:09.055Z,4.63
2023-04-27T04:16:35.696Z,4.80
2023-04-27T04:19:02.391Z,4.98
2023-04-27T04:21:29.175Z,5.09
2023-04-27T04:23:56.426Z,5.25
2023-04-27T04:26:23.647Z,5.44
2023-04-27T04:28:50.432Z,5.71
2023-04-27T04:31:18.306Z,6.03
2023-04-27T04:33:45.041Z,6.31
2023-04-27T04:36:11.779Z,6.56
2023-04-27T04:38:38.619Z,6.84
2023-04-27T04:41:05.376Z,7.18
2023-04-27T04:43:33.437Z,7.52
2023-04-27T04:46:03.658Z,7.82
2023-04-27T04:48:30.433Z,8.12
2023-04-27T04:50:57.416Z,8.45
2023-04-27T04:53:24.152Z,8.71
2023-04-27T04:55:50.885Z,9.01
2023-04-27T04:58:17.542Z,9.32
2023-04-27T05:00:44.406Z,9.57
2023-04-27T05:03:11.209Z,9.87
2023-04-27T05:05:38.006Z,10.12
2023-04-27T05:08:04.800Z,10.40
2023-04-27T05:10:31.473Z,10.63
2023-04-27T05:12:58.131Z,10.82
2023-04-27T05:15:24.767Z,10.87
2023-04-27T05:17:51.483Z,10.93
2023-04-27T05:20:18.226Z,10.94
2023-04-27T05:22:44.850Z,10.96
2023-04-27T05:25:11.717Z,10.86
2023-04-27T05:27:38.347Z,10.61
2023-04-27T05:30:05.369Z,10.61
2023-04-27T05:32:34.238Z,10.46
2023-04-27T05:35:01.006Z,10.37
2023-04-27T05:37:27.647Z,10.23
2023-04-27T05:39:54.220Z,10.21
2023-04-27T05:42:20.819Z,10.18
2023-04-27T05:44:47.602Z,10.18
2023-04-27T05:47:14.228Z,10.23
2023-04-27T05:49:40.884Z,10.47
2023-04-27T05:52:07.565Z,10.88
2023-04-27T05:54:34.232Z,11.25
2023-04-27T05:57:01.067Z,11.68
2023-04-27T05:59:29.400Z,12.22
2023-04-27T06:01:57.066Z,12.71
2023-04-27T06:04:23.996Z,13.12
2023-04-27T06:06:50.938Z,13.52
2023-04-27T06:09:17.593Z,14.04
2023-04-27T06:11:44.937Z,14.25
2023-04-27T06:14:11.582Z,14.34
2023-04-27T06:16:38.343Z,14.31
2023-04-27T06:19:04.992Z,14.41
2023-04-27T06:21:33.862Z,14.51
2023-04-27T06:24:01.151Z,14.44
2023-04-27T06:26:28.381Z,14.28
2023-04-27T06:28:56.212Z,14.44
2023-04-27T06:31:22.991Z,14.52
2023-04-27T06:33:49.730Z,14.56
2023-04-27T06:36:17.217Z,14.61
2023-04-27T06:38:43.912Z,14.64
2023-04-27T06:41:11.019Z,14.66
2023-04-27T06:43:37.945Z,14.71
2023-04-27T06:46:06.416Z,14.01
2023-04-27T06:48:33.094Z,14.34
2023-04-27T06:50:59.788Z,14.59
2023-04-27T06:53:26.995Z,14.95
2023-04-27T06:55:53.744Z,15.14
2023-04-27T06:58:20.484Z,15.17
2023-04-27T07:00:47.154Z,14.75
2023-04-27T07:03:14.755Z,14.48
2023-04-27T07:05:41.582Z,15.01
2023-04-27T07:08:09.132Z,15.46
2023-04-27T07:10:36.143Z,15.51
2023-04-27T07:13:02.808Z,15.73
2023-04-27T07:15:31.144Z,15.96
2023-04-27T07:17:57.836Z,16.22
2023-04-27T07:20:24.548Z,16.32
2023-04-27T07:22:51.211Z,16.22
2023-04-27T07:25:17.945Z,16.05
2023-04-27T07:27:45.348Z,16.62
2023-04-27T07:30:13.925Z,16.85
2023-04-27T07:32:41.986Z,16.98
2023-04-27T07:35:12.062Z,17.01
2023-04-27T07:37:38.783Z,17.33
2023-04-27T07:40:16.941Z,17.64
2023-04-27T07:42:46.480Z,17.75
2023-04-27T07:45:14.138Z,16.35
2023-04-27T07:47:40.864Z,16.94
2023-04-27T07:50:08.424Z,17.11
2023-04-27T07:52:35.104Z,17.34
2023-04-27T07:55:02.032Z,17.40
2023-04-27T07:57:28.701Z,17.34
2023-04-27T07:59:55.599Z,17.73
2023-04-27T08:02:22.340Z,17.39
2023-04-27T08:04:50.171Z,17.71
2023-04-27T08:07:17.820Z,17.93
2023-04-27T08:09:44.694Z,18.10
2023-04-27T08:12:11.295Z,17.78
2023-04-27T08:14:38.070Z,18.32
2023-04-27T08:17:04.810Z,18.53
2023-04-27T08:19:31.501Z,18.82
2023-04-27T08:21:58.141Z,19.09
2023-04-27T08:24:24.847Z,19.04
2023-04-27T08:26:51.552Z,18.92
2023-04-27T08:29:27.187Z,19.23
2023-04-27T08:31:57.982Z,19.34
2023-04-27T08:34:24.681Z,19.35
2023-04-27T08:36:51.616Z,18.94
2023-04-27T08:39:18.556Z,19.42
2023-04-27T08:41:45.588Z,19.83
2023-04-27T08:44:12.431Z,19.90
2023-04-27T08:46:39.718Z,19.87
2023-04-27T08:49:07.899Z,19.91
2023-04-27T08:51:35.454Z,19.72
2023-04-27T08:54:02.434Z,19.70
2023-04-27T08:56:30.166Z,19.94
2023-04-27T08:58:58.646Z,19.96
2023-04-27T09:01:27.423Z,20.20
2023-04-27T09:03:59.072Z,20.27
2023-04-27T09:06:33.099Z,20.20
2023-04-27T09:09:00.962Z,20.21
2023-04-27T09:11:31.295Z,20.35
2023-04-27T09:13:59.836Z,20.17
2023-04-27T09:16:29.232Z,20.04
2023-04-27T09:18:57.368Z,20.33
2023-04-27T09:21:24.536Z,20.45
2023-04-27T09:23:51.813Z,20.44
2023-04-27T09:26:23.659Z,20.37
2023-04-27T09:28:52.139Z,20.54
2023-04-27T09:31:19.249Z,20.88
2023-04-27T09:33:47.523Z,21.15
2023-04-27T09:36:14.454Z,21.15
2023-04-27T09:38:41.536Z,21.38
2023-04-27T09:41:08.252Z,21.55
2023-04-27T09:43:35.170Z,21.20
2023-04-27T09:46:04.561Z,21.17
2023-04-27T09:48:31.273Z,21.21
2023-04-27T09:50:57.901Z,20.44
2023-04-27T09:53:45.568Z,19.66
2023-04-27T09:56:31.017Z,19.50
2023-04-27T09:59:09.976Z,18.59
2023-04-27T10:01:50.805Z,19.81
2023-04-27T10:04:39.454Z,20.01
2023-04-27T10:07:12.797Z,19.80
2023-04-27T10:09:51.733Z,19.62
2023-04-27T10:12:18.467Z,19.48
2023-04-27T10:14:48.863Z,19.67
2023-04-27T10:17:16.123Z,19.74
2023-04-27T10:19:57.362Z,17.84
2023-04-27T10:22:26.210Z,18.85
2023-04-27T10:24:52.832Z,18.44
2023-04-27T10:27:22.554Z,19.11
2023-04-27T10:29:49.838Z,18.79
2023-04-27T10:32:25.096Z,18.27
2023-04-27T10:35:02.270Z,19.00
2023-04-27T10:37:39.702Z,19.00
2023-04-27T10:40:08.631Z,19.24
2023-04-27T10:42:36.308Z,19.79
2023-04-27T10:45:03.249Z,18.68
2023-04-27T10:47:38.208Z,19.40
2023-04-27T10:50:06.098Z,19.38
2023-04-27T10:52:33.082Z,19.21
2023-04-27T10:55:12.732Z,19.12
2023-04-27T10:58:06.050Z,19.49
2023-04-27T11:00:39.583Z,17.59
2023-04-27T11:03:25.348Z,18.33
2023-04-27T11:06:05.655Z,19.42
2023-04-27T11:08:36.819Z,19.31
2023-04-27T11:11:05.103Z,18.81
2023-04-27T11:13:33.535Z,19.06
2023-04-27T11:16:00.692Z,19.66
2023-04-27T11:18:31.180Z,20.67
2023-04-27T11:21:09.426Z,20.90
2023-04-27T11:23:39.801Z,19.94
2023-04-27T11:26:15.215Z,19.98
2023-04-27T11:28:43.311Z,18.85
2023-04-27T11:31:10.183Z,19.16
2023-04-27T11:33:37.110Z,19.67
2023-04-27T11:36:03.935Z,18.83
2023-04-27T11:38:34.347Z,19.57
2023-04-27T11:41:05.836Z,20.90
2023-04-27T11:43:33.435Z,20.15
2023-04-27T11:46:10.545Z,20.84
2023-04-27T11:48:38.370Z,20.03
2023-04-27T11:51:06.059Z,20.74
2023-04-27T11:53:34.926Z,20.44
2023-04-27T11:56:05.163Z,20.40
2023-04-27T11:58:36.329Z,19.53
2023-04-27T12:01:07.417Z,19.52
2023-04-27T12:03:34.741Z,19.53
2023-04-27T12:08:31.750Z,20.24
2023-04-27T12:10:58.495Z,18.56
2023-04-27T12:13:25.168Z,18.48
2023-04-27T12:15:52.487Z,19.19
2023-04-27T12:18:19.131Z,17.88
2023-04-27T12:20:46.500Z,18.40
2023-04-27T12:23:13.138Z,18.49
2023-04-27T12:25:41.224Z,18.46
2023-04-27T12:28:08.104Z,18.71
2023-04-27T12:30:35.070Z,19.23
2023-04-27T12:33:02.543Z,18.55
2023-04-27T12:35:32.164Z,19.01
2023-04-27T12:37:59.013Z,19.41
2023-04-27T12:40:25.758Z,19.54
2023-04-27T12:42:52.416Z,19.05
2023-04-27T12:45:19.057Z,18.89
2023-04-27T12:47:58.645Z,18.76
2023-04-27T12:50:29.055Z,18.03
2023-04-27T12:52:55.687Z,17.41
2023-04-27T12:55:32.201Z,17.42
2023-04-27T12:58:00.230Z,17.14
2023-04-27T13:00:27.036Z,17.24
2023-04-27T13:02:53.986Z,17.45
2023-04-27T13:05:22.157Z,17.66
2023-04-27T13:07:48.973Z,18.17
2023-04-27T13:10:15.992Z,18.43
2023-04-27T13:12:42.836Z,18.48
2023-04-27T13:15:10.153Z,18.93
2023-04-27T13:17:37.189Z,19.06
2023-04-27T13:20:04.073Z,19.41
2023-04-27T13:22:30.784Z,19.04
2023-04-27T13:24:58.130Z,19.48
2023-04-27T13:27:28.329Z,19.67
2023-04-27T13:29:55.018Z,19.87
2023-04-27T13:32:22.336Z,19.84
2023-04-27T13:34:49.389Z,19.76
2023-04-27T13:37:16.618Z,18.91
2023-04-27T13:39:43.351Z,18.92
2023-04-27T13:42:10.155Z,18.94
2023-04-27T13:44:36.750Z,19.60
2023-04-27T13:47:03.514Z,20.12
2023-04-27T13:49:30.304Z,20.97
2023-04-27T13:51:56.941Z,21.55
2023-04-27T13:54:23.703Z,20.99
2023-04-27T13:56:50.455Z,20.50
2023-04-27T13:59:17.250Z,19.44
2023-04-27T14:01:44.032Z,19.24
2023-04-27T14:04:10.851Z,18.81
2023-04-27T14:06:37.720Z,20.01
2023-04-27T14:09:04.927Z,20.21
2023-04-27T14:11:37.197Z,19.09
2023-04-27T14:14:08.986Z,19.99
2023-04-27T14:16:35.806Z,20.20
2023-04-27T14:19:02.636Z,20.82
2023-04-27T14:21:29.348Z,21.10
2023-04-27T14:23:56.239Z,20.53
2023-04-27T14:26:22.959Z,20.65
2023-04-27T14:28:49.598Z,19.15
2023-04-27T14:31:16.251Z,19.11
2023-04-27T14:33:42.954Z,19.03
2023-04-27T14:36:09.713Z,19.50
2023-04-27T14:38:36.386Z,19.93
2023-04-27T14:41:05.716Z,20.50
2023-04-27T14:43:32.362Z,21.30
2023-04-27T14:46:05.134Z,21.44
2023-04-27T14:48:46.504Z,20.90
2023-04-27T14:51:16.728Z,20.92
2023-04-27T14:53:44.059Z,21.27
2023-04-27T14:56:11.320Z,20.37
2023-04-27T14:58:37.983Z,19.24
2023-04-27T15:01:04.681Z,20.65
2023-04-27T15:03:34.591Z,21.37
2023-04-27T15:06:01.957Z,20.50
2023-04-27T15:08:30.158Z,20.98
2023-04-27T15:10:59.868Z,20.99
2023-04-27T15:13:27.457Z,21.12
2023-04-27T15:15:58.339Z,21.10
2023-04-27T15:18:25.635Z,21.14
2023-04-27T15:20:56.581Z,20.21
2023-04-27T15:23:24.364Z,19.57
2023-04-27T15:25:53.856Z,18.86
2023-04-27T15:28:20.516Z,19.49
2023-04-27T15:30:47.424Z,19.98
2023-04-27T15:33:15.150Z,19.41
2023-04-27T15:35:42.109Z,19.29
2023-04-27T15:38:10.611Z,19.93
2023-04-27T15:40:37.235Z,20.25
2023-04-27T15:43:04.907Z,20.35
2023-04-27T15:45:31.953Z,20.42
2023-04-27T15:47:58.940Z,19.93
2023-04-27T15:50:26.002Z,19.49
2023-04-27T15:52:52.997Z,19.44
2023-04-27T15:55:19.728Z,18.91
2023-04-27T15:57:46.458Z,18.95
2023-04-27T16:00:16.325Z,18.41
2023-04-27T16:02:43.291Z,18.62
2023-04-27T16:05:10.329Z,18.60
2023-04-27T16:07:39.416Z,18.59
2023-04-27T16:10:07.260Z,18.44
2023-04-27T16:12:33.949Z,18.35
2023-04-27T16:15:01.026Z,18.22
2023-04-27T16:17:29.211Z,18.18
2023-04-27T16:19:55.976Z,18.09
2023-04-27T16:22:22.688Z,18.08
2023-04-27T16:24:49.532Z,17.98
2023-04-27T16:27:20.881Z,17.90
2023-04-27T16:29:47.634Z,17.83
2023-04-27T16:32:14.423Z,17.80
2023-04-27T16:34:41.609Z,17.71
2023-04-27T16:37:08.288Z,17.62
2023-04-27T16:39:35.000Z,17.49
2023-04-27T16:42:01.645Z,17.51
2023-04-27T16:44:28.377Z,17.27
2023-04-27T16:46:55.029Z,17.06
2023-04-27T16:49:21.633Z,16.95
2023-04-27T16:51:48.363Z,16.69
2023-04-27T16:54:16.556Z,16.47
2023-04-27T16:56:43.331Z,16.46
2023-04-27T16:59:12.490Z,16.26
2023-04-27T17:01:40.022Z,16.20
2023-04-27T17:04:06.831Z,16.16
2023-04-27T17:06:34.911Z,16.16
2023-04-27T17:09:01.726Z,16.03
2023-04-27T17:11:28.381Z,15.84
2023-04-27T17:13:55.092Z,15.69
2023-04-27T17:16:21.998Z,15.67
2023-04-27T17:18:49.095Z,15.58
2023-04-27T17:21:16.828Z,15.25
2023-04-27T17:23:46.511Z,15.02
2023-04-27T17:26:15.944Z,15.00
2023-04-27T17:28:42.655Z,14.81
2023-04-27T17:31:09.306Z,14.64
2023-04-27T17:33:36.076Z,14.47
2023-04-27T17:36:02.847Z,14.34
2023-04-27T17:38:29.492Z,14.15
2023-04-27T17:40:56.341Z,13.87
2023-04-27T17:43:22.976Z,13.75
2023-04-27T17:45:49.687Z,13.64
2023-04-27T17:48:16.437Z,13.60
2023-04-27T17:50:43.534Z,13.45
2023-04-27T17:53:10.178Z,13.27
2023-04-27T17:55:36.823Z,13.09
2023-04-27T17:58:06.222Z,13.00
2023-04-27T18:00:33.131Z,12.87
2023-04-27T18:02:59.872Z,12.68
2023-04-27T18:05:27.419Z,12.59
2023-04-27T18:07:54.112Z,12.43
2023-04-27T18:10:20.865Z,12.38
2023-04-27T18:12:47.586Z,12.35
2023-04-27T18:15:14.226Z,12.16
2023-04-27T18:17:41.141Z,12.04
2023-04-27T18:20:10.500Z,12.02
2023-04-27T18:22:39.630Z,11.93
2023-04-27T18:25:07.242Z,11.79
2023-04-27T18:27:33.928Z,11.82
2023-04-27T18:30:00.738Z,11.63
2023-04-27T18:32:27.474Z,11.57
2023-04-27T18:34:54.182Z,11.43
2023-04-27T18:37:20.921Z,11.37
2023-04-27T18:39:47.642Z,11.35
2023-04-27T18:42:14.257Z,11.22
2023-04-27T18:44:40.987Z,11.12
2023-04-27T18:47:07.946Z,11.10
2023-04-27T18:49:34.660Z,10.99
2023-04-27T18:52:01.400Z,10.79
2023-04-27T18:54:28.039Z,10.64
2023-04-27T18:56:54.768Z,10.69
2023-04-27T18:59:21.532Z,10.54
2023-04-27T19:01:48.262Z,10.46
2023-04-27T19:04:16.408Z,10.36
2023-04-27T19:06:43.225Z,10.29
2023-04-27T19:09:10.208Z,10.26
2023-04-27T19:11:36.946Z,10.09
2023-04-27T19:14:03.605Z,10.24
2023-04-27T19:16:30.350Z,10.14
2023-04-27T19:18:57.072Z,10.02
2023-04-27T19:21:23.739Z,10.01
2023-04-27T19:23:50.364Z,10.00
2023-04-27T19:26:17.044Z,9.87
2023-04-27T19:28:43.698Z,9.69
2023-04-27T19:31:10.530Z,9.60
2023-04-27T19:33:37.269Z,9.48
2023-04-27T19:36:04.360Z,9.39
2023-04-27T19:38:31.046Z,9.34
2023-04-27T19:40:57.784Z,9.33
2023-04-27T19:43:24.415Z,9.28
2023-04-27T19:45:51.384Z,9.27
2023-04-27T19:48:18.244Z,9.17
2023-04-27T19:50:45.016Z,9.15
2023-04-27T19:53:11.732Z,9.03
2023-04-27T19:55:39.216Z,8.98
2023-04-27T19:58:06.328Z,8.95
2023-04-27T20:00:33.392Z,8.91
2023-04-27T20:03:00.226Z,8.84
2023-04-27T20:05:27.219Z,8.77
2023-04-27T20:07:54.135Z,8.80
2023-04-27T20:10:21.472Z,8.73
2023-04-27T20:12:56.550Z,8.71
2023-04-27T20:15:24.494Z,8.68
2023-04-27T20:17:51.945Z,8.64
2023-04-27T20:20:19.293Z,8.53
2023-04-27T20:22:46.099Z,8.35
2023-04-27T20:25:14.857Z,8.20
2023-04-27T20:27:41.890Z,8.23
2023-04-27T20:30:09.101Z,8.17
2023-04-27T20:32:36.396Z,8.04
2023-04-27T20:35:04.804Z,7.96
2023-04-27T20:37:32.437Z,7.94
2023-04-27T20:39:59.504Z,7.90
2023-04-27T20:42:26.241Z,7.75
2023-04-27T20:44:54.873Z,7.80
2023-04-27T20:47:21.984Z,7.68
2023-04-27T20:49:48.945Z,7.61
2023-04-27T20:52:15.833Z,7.58
2023-04-27T20:54:42.518Z,7.52
2023-04-27T20:57:13.496Z,7.44
2023-04-27T20:59:41.126Z,7.39
2023-04-27T21:02:07.816Z,7.31
2023-04-27T21:04:34.642Z,7.25
2023-04-27T21:07:01.448Z,7.17
2023-04-27T21:09:28.233Z,7.17
2023-04-27T21:11:55.003Z,7.16
2023-04-27T21:14:21.760Z,7.08
2023-04-27T21:16:48.428Z,6.98
2023-04-27T21:19:16.575Z,6.96
2023-04-27T21:21:43.396Z,6.95
2023-04-27T21:24:10.244Z,6.82
2023-04-27T21:26:36.885Z,6.78
2023-04-27T21:29:05.547Z,6.78
2023-04-27T21:31:33.332Z,6.77
2023-04-27T21:34:00.196Z,6.64
2023-04-27T21:36:26.925Z,6.48
2023-04-27T21:38:53.667Z,6.45
2023-04-27T21:41:20.346Z,6.53
2023-04-27T21:43:47.016Z,6.48
2023-04-27T21:46:13.726Z,6.40
2023-04-27T21:48:40.404Z,6.36
2023-04-27T21:51:07.045Z,6.33
2023-04-27T21:53:33.668Z,6.28
2023-04-27T21:56:00.358Z,6.31
2023-04-27T21:58:28.689Z,6.24
2023-04-27T22:00:55.368Z,6.22
2023-04-27T22:03:22.759Z,6.24
2023-04-27T22:05:50.343Z,6.26
2023-04-27T22:08:18.387Z,6.24
2023-04-27T22:10:45.540Z,6.22
2023-04-27T22:13:18.365Z,6.20
2023-04-27T22:15:46.526Z,6.20
2023-04-27T22:18:17.329Z,6.23
2023-04-27T22:20:44.173Z,6.25
2023-04-27T22:23:12.102Z,6.22
2023-04-27T22:25:38.816Z,6.22
2023-04-27T22:28:05.454Z,6.30
2023-04-27T22:30:32.142Z,6.26
2023-04-27T22:32:58.962Z,6.21
2023-04-27T22:35:27.577Z,6.20
2023-04-27T22:37:59.324Z,6.24
2023-04-27T22:40:26.447Z,6.19
2023-04-27T22:42:54.109Z,6.15
2023-04-27T22:45:22.162Z,6.17
2023-04-27T22:47:49.606Z,6.09
2023-04-27T22:50:16.811Z,6.11
2023-04-27T22:52:43.587Z,6.10
2023-04-27T22:55:11.452Z,6.06
2023-04-27T22:57:38.935Z,6.06
2023-04-27T23:00:11.658Z,6.03
2023-04-27T23:02:39.762Z,5.99
2023-04-27T23:05:11.013Z,6.00
2023-04-27T23:07:38.515Z,5.97
2023-04-27T23:10:06.097Z,5.96
2023-04-27T23:12:33.282Z,5.92
2023-04-27T23:15:00.055Z,5.93
2023-04-27T23:17:32.794Z,5.87
2023-04-27T23:20:00.685Z,5.87
2023-04-27T23:22:27.929Z,5.88
2023-04-27T23:24:55.037Z,5.82
2023-04-27T23:27:22.714Z,5.83
2023-04-27T23:29:49.379Z,5.79
2023-04-27T23:32:16.054Z,5.74
2023-04-27T23:34:42.696Z,5.72
2023-04-27T23:37:09.348Z,5.62
2023-04-27T23:39:37.001Z,5.58
2023-04-27T23:42:03.837Z,5.64
2023-04-27T23:44:30.551Z,5.51
2023-04-27T23:46:57.530Z,5.51
2023-04-27T23:49:24.241Z,5.46
2023-04-27T23:51:52.476Z,5.38
2023-04-27T23:54:19.214Z,5.40
2023-04-27T23:56:47.309Z,5.56
2023-04-27T23:59:15.039Z,5.55
